SHT22A EGLL-EGJB
Flight info
| Callsign | SHT22A |
|---|---|
| Flight time | 0h 35m |
| Altitude | 18000 |
| Route | GASGU N866 SAM N63 LELNA |
| Aircraft | A319/M-SDE3FGHIRWY/LB1 |
Departure
| Time | 2026-04-24 14:12 |
|---|---|
| Airport | London Heathrow Airport (EGLL) |
Arrival
| Time | 2026-04-24 14:47 |
|---|---|
| Airport | Guernsey Airport (EGJB) |
| Time | Latitude | Longitude | Altitude | Speed | Heading |
|---|---|---|---|---|---|
| 2026-04-24 13:38 | 51.47415 | -0.48955 | 87 ft | 0 kts | 180° |
| 2026-04-24 13:58 | 51.47428 | -0.48955 | 91 ft | 4 kts | 180° |
| 2026-04-24 13:59 | 51.47455 | -0.48956 | 89 ft | 4 kts | 180° |
| 2026-04-24 13:59 | 51.47482 | -0.48956 | 88 ft | 4 kts | 179° |
| 2026-04-24 13:59 | 51.47509 | -0.48958 | 90 ft | 4 kts | 173° |
| 2026-04-24 13:59 | 51.47532 | -0.48966 | 90 ft | 1 kts | 153° |
| 2026-04-24 14:00 | 51.47533 | -0.48966 | 90 ft | 0 kts | 153° |
| 2026-04-24 14:04 | 51.47528 | -0.48962 | 87 ft | 3 kts | 153° |
| 2026-04-24 14:04 | 51.47500 | -0.48928 | 87 ft | 7 kts | 132° |
| 2026-04-24 14:05 | 51.47484 | -0.48836 | 87 ft | 9 kts | 90° |
| 2026-04-24 14:05 | 51.47486 | -0.48730 | 89 ft | 10 kts | 90° |
| 2026-04-24 14:05 | 51.47486 | -0.48587 | 87 ft | 16 kts | 89° |
| 2026-04-24 14:05 | 51.47410 | -0.48476 | 87 ft | 20 kts | 182° |
| 2026-04-24 14:06 | 51.47288 | -0.48476 | 87 ft | 19 kts | 179° |
| 2026-04-24 14:06 | 51.47157 | -0.48474 | 87 ft | 12 kts | 179° |
| 2026-04-24 14:06 | 51.47061 | -0.48474 | 87 ft | 15 kts | 180° |
| 2026-04-24 14:06 | 51.46941 | -0.48473 | 87 ft | 19 kts | 180° |
| 2026-04-24 14:07 | 51.46802 | -0.48472 | 87 ft | 16 kts | 180° |
| 2026-04-24 14:07 | 51.46741 | -0.48586 | 87 ft | 17 kts | 269° |
| 2026-04-24 14:07 | 51.46728 | -0.48735 | 88 ft | 10 kts | 230° |
| 2026-04-24 14:07 | 51.46657 | -0.48751 | 87 ft | 11 kts | 179° |
| 2026-04-24 14:08 | 51.46593 | -0.48775 | 89 ft | 0 kts | 201° |
| 2026-04-24 14:09 | 51.46573 | -0.48786 | 90 ft | 11 kts | 198° |
| 2026-04-24 14:09 | 51.46486 | -0.48741 | 91 ft | 15 kts | 123° |
| 2026-04-24 14:10 | 51.46477 | -0.48628 | 88 ft | 0 kts | 89° |
| 2026-04-24 14:11 | 51.46477 | -0.48616 | 88 ft | 7 kts | 89° |
| 2026-04-24 14:11 | 51.46479 | -0.48138 | 88 ft | 79 kts | 90° |
| 2026-04-24 14:11 | 51.46498 | -0.45167 | 306 ft | 168 kts | 89° |
| 2026-04-24 14:12 | 51.46516 | -0.43238 | 961 ft | 173 kts | 88° |
| 2026-04-24 14:12 | 51.46370 | -0.41306 | 1659 ft | 186 kts | 110° |
| 2026-04-24 14:12 | 51.45626 | -0.39434 | 2066 ft | 213 kts | 122° |
| 2026-04-24 14:12 | 51.44734 | -0.37409 | 2627 ft | 237 kts | 123° |
| 2026-04-24 14:13 | 51.43727 | -0.35209 | 3591 ft | 250 kts | 128° |
| 2026-04-24 14:13 | 51.42326 | -0.33491 | 4677 ft | 261 kts | 152° |
| 2026-04-24 14:13 | 51.41757 | -0.33127 | 5055 ft | 264 kts | 160° |
| 2026-04-24 14:14 | 51.40654 | -0.32845 | 5563 ft | 274 kts | 189° |
| 2026-04-24 14:14 | 51.38816 | -0.33736 | 6657 ft | 277 kts | 200° |
| 2026-04-24 14:14 | 51.35619 | -0.37297 | 8773 ft | 284 kts | 218° |
| 2026-04-24 14:15 | 51.34119 | -0.39389 | 9799 ft | 287 kts | 219° |
| 2026-04-24 14:15 | 51.32643 | -0.41524 | 10615 ft | 298 kts | 221° |
| 2026-04-24 14:15 | 51.31227 | -0.44123 | 10980 ft | 324 kts | 233° |
| 2026-04-24 14:15 | 51.30112 | -0.47363 | 11581 ft | 339 kts | 245° |
| 2026-04-24 14:16 | 51.29331 | -0.50954 | 12408 ft | 344 kts | 250° |
| 2026-04-24 14:16 | 51.28635 | -0.54629 | 13271 ft | 347 kts | 252° |
| 2026-04-24 14:16 | 51.27968 | -0.58357 | 14132 ft | 350 kts | 252° |
| 2026-04-24 14:17 | 51.26579 | -0.65864 | 15669 ft | 354 kts | 251° |
| 2026-04-24 14:17 | 51.25852 | -0.69632 | 16456 ft | 357 kts | 251° |
| 2026-04-24 14:17 | 51.24360 | -0.77235 | 17944 ft | 362 kts | 250° |
| 2026-04-24 14:18 | 51.23603 | -0.81077 | 18213 ft | 362 kts | 250° |
| 2026-04-24 14:18 | 51.22846 | -0.84925 | 18271 ft | 365 kts | 250° |
| 2026-04-24 14:18 | 51.22084 | -0.88800 | 18274 ft | 366 kts | 250° |
| 2026-04-24 14:18 | 51.21276 | -0.92652 | 18272 ft | 365 kts | 246° |
| 2026-04-24 14:19 | 51.20542 | -0.95051 | 18276 ft | 363 kts | 238° |
| 2026-04-24 14:19 | 51.18514 | -0.99315 | 18272 ft | 361 kts | 224° |
| 2026-04-24 14:19 | 51.16706 | -1.02096 | 18272 ft | 360 kts | 223° |
| 2026-04-24 14:19 | 51.14901 | -1.04867 | 18277 ft | 360 kts | 223° |
| 2026-04-24 14:20 | 51.13104 | -1.07634 | 18273 ft | 360 kts | 223° |
| 2026-04-24 14:20 | 51.11309 | -1.10398 | 18270 ft | 359 kts | 223° |
| 2026-04-24 14:20 | 51.09510 | -1.13160 | 18274 ft | 360 kts | 223° |
| 2026-04-24 14:20 | 51.07710 | -1.15920 | 18275 ft | 359 kts | 223° |
| 2026-04-24 14:21 | 51.05908 | -1.18681 | 18276 ft | 359 kts | 223° |
| 2026-04-24 14:21 | 51.04108 | -1.21436 | 18274 ft | 359 kts | 223° |
| 2026-04-24 14:21 | 51.02304 | -1.24187 | 18275 ft | 360 kts | 223° |
| 2026-04-24 14:21 | 51.00520 | -1.26904 | 18276 ft | 360 kts | 223° |
| 2026-04-24 14:22 | 50.98713 | -1.29651 | 18274 ft | 360 kts | 223° |
| 2026-04-24 14:22 | 50.96899 | -1.32404 | 18273 ft | 360 kts | 223° |
| 2026-04-24 14:22 | 50.92731 | -1.36755 | 18267 ft | 361 kts | 207° |
| 2026-04-24 14:23 | 50.90485 | -1.38546 | 18265 ft | 361 kts | 207° |
| 2026-04-24 14:23 | 50.88239 | -1.40337 | 18265 ft | 362 kts | 207° |
| 2026-04-24 14:23 | 50.85990 | -1.42127 | 18265 ft | 361 kts | 207° |
| 2026-04-24 14:23 | 50.83744 | -1.43911 | 18261 ft | 362 kts | 207° |
| 2026-04-24 14:24 | 50.81494 | -1.45700 | 18262 ft | 362 kts | 207° |
| 2026-04-24 14:24 | 50.79242 | -1.47491 | 18260 ft | 363 kts | 207° |
| 2026-04-24 14:24 | 50.76990 | -1.49278 | 18256 ft | 363 kts | 207° |
| 2026-04-24 14:24 | 50.74731 | -1.51070 | 18260 ft | 363 kts | 207° |
| 2026-04-24 14:25 | 50.73232 | -1.52259 | 18261 ft | 363 kts | 207° |
| 2026-04-24 14:25 | 50.70208 | -1.54654 | 18261 ft | 364 kts | 207° |
| 2026-04-24 14:25 | 50.67943 | -1.56444 | 18265 ft | 364 kts | 207° |
| 2026-04-24 14:25 | 50.65676 | -1.58234 | 18270 ft | 364 kts | 207° |
| 2026-04-24 14:26 | 50.63408 | -1.60024 | 18267 ft | 366 kts | 207° |
| 2026-04-24 14:26 | 50.61074 | -1.61865 | 18276 ft | 386 kts | 207° |
| 2026-04-24 14:26 | 50.58613 | -1.63805 | 18271 ft | 405 kts | 207° |
| 2026-04-24 14:26 | 50.56040 | -1.65835 | 18271 ft | 421 kts | 207° |
| 2026-04-24 14:27 | 50.53405 | -1.67910 | 18271 ft | 426 kts | 207° |
| 2026-04-24 14:27 | 50.50753 | -1.69992 | 18270 ft | 428 kts | 207° |
| 2026-04-24 14:27 | 50.48085 | -1.72081 | 18267 ft | 428 kts | 207° |
| 2026-04-24 14:27 | 50.45417 | -1.74168 | 18268 ft | 428 kts | 207° |
| 2026-04-24 14:28 | 50.42783 | -1.76224 | 18269 ft | 428 kts | 207° |
| 2026-04-24 14:28 | 50.40115 | -1.78302 | 18270 ft | 428 kts | 207° |
| 2026-04-24 14:28 | 50.37449 | -1.80376 | 18269 ft | 428 kts | 207° |
| 2026-04-24 14:28 | 50.34782 | -1.82451 | 18264 ft | 429 kts | 207° |
| 2026-04-24 14:29 | 50.32106 | -1.84532 | 18267 ft | 429 kts | 207° |
| 2026-04-24 14:29 | 50.29437 | -1.86605 | 18272 ft | 429 kts | 207° |
| 2026-04-24 14:29 | 50.26766 | -1.88677 | 18263 ft | 429 kts | 207° |
| 2026-04-24 14:29 | 50.24089 | -1.90751 | 18257 ft | 429 kts | 207° |
| 2026-04-24 14:30 | 50.22282 | -1.92152 | 18251 ft | 429 kts | 207° |
| 2026-04-24 14:30 | 50.18742 | -1.94891 | 18252 ft | 429 kts | 207° |
| 2026-04-24 14:30 | 50.16063 | -1.96958 | 18254 ft | 430 kts | 207° |
| 2026-04-24 14:30 | 50.13379 | -1.99025 | 18252 ft | 430 kts | 207° |
| 2026-04-24 14:31 | 50.10699 | -2.01092 | 18251 ft | 430 kts | 207° |
| 2026-04-24 14:31 | 50.08018 | -2.03162 | 18247 ft | 430 kts | 207° |
| 2026-04-24 14:31 | 50.05336 | -2.05228 | 18252 ft | 430 kts | 207° |
| 2026-04-24 14:31 | 50.02653 | -2.07286 | 18244 ft | 430 kts | 207° |
| 2026-04-24 14:32 | 49.99977 | -2.09369 | 18236 ft | 430 kts | 209° |
| 2026-04-24 14:32 | 49.97551 | -2.12058 | 18225 ft | 426 kts | 222° |
| 2026-04-24 14:32 | 49.95560 | -2.15315 | 17975 ft | 406 kts | 228° |
| 2026-04-24 14:32 | 49.93725 | -2.18532 | 17769 ft | 389 kts | 228° |
| 2026-04-24 14:33 | 49.91979 | -2.21604 | 17632 ft | 371 kts | 228° |
| 2026-04-24 14:33 | 49.90310 | -2.24538 | 17479 ft | 354 kts | 228° |
| 2026-04-24 14:33 | 49.88699 | -2.27358 | 17090 ft | 346 kts | 227° |
| 2026-04-24 14:33 | 49.87110 | -2.30125 | 16561 ft | 342 kts | 227° |
| 2026-04-24 14:34 | 49.85533 | -2.32866 | 16024 ft | 340 kts | 227° |
| 2026-04-24 14:34 | 49.83961 | -2.35596 | 15486 ft | 338 kts | 227° |
| 2026-04-24 14:34 | 49.82396 | -2.38309 | 14953 ft | 337 kts | 227° |
| 2026-04-24 14:34 | 49.80861 | -2.40966 | 14435 ft | 336 kts | 226° |
| 2026-04-24 14:35 | 49.79829 | -2.42753 | 14092 ft | 335 kts | 226° |
| 2026-04-24 14:35 | 49.78282 | -2.45437 | 13518 ft | 332 kts | 226° |
| 2026-04-24 14:35 | 49.76756 | -2.48079 | 12709 ft | 328 kts | 226° |
| 2026-04-24 14:35 | 49.75242 | -2.50698 | 11920 ft | 324 kts | 226° |
| 2026-04-24 14:36 | 49.73749 | -2.53271 | 11167 ft | 320 kts | 226° |
| 2026-04-24 14:36 | 49.72275 | -2.55808 | 10447 ft | 315 kts | 225° |
| 2026-04-24 14:36 | 49.70822 | -2.58308 | 9847 ft | 306 kts | 225° |
| 2026-04-24 14:36 | 49.69428 | -2.60634 | 9633 ft | 285 kts | 221° |
| 2026-04-24 14:37 | 49.67972 | -2.62643 | 9115 ft | 278 kts | 218° |
| 2026-04-24 14:37 | 49.66512 | -2.64579 | 8528 ft | 276 kts | 218° |
| 2026-04-24 14:37 | 49.65052 | -2.66509 | 7934 ft | 274 kts | 218° |
| 2026-04-24 14:37 | 49.63608 | -2.68415 | 7358 ft | 273 kts | 218° |
| 2026-04-24 14:38 | 49.62168 | -2.70317 | 6862 ft | 269 kts | 219° |
| 2026-04-24 14:38 | 49.60771 | -2.72159 | 6744 ft | 259 kts | 219° |
| 2026-04-24 14:38 | 49.59432 | -2.73925 | 6619 ft | 247 kts | 219° |
| 2026-04-24 14:38 | 49.58159 | -2.75603 | 6490 ft | 235 kts | 219° |
| 2026-04-24 14:39 | 49.56954 | -2.77193 | 6362 ft | 222 kts | 218° |
| 2026-04-24 14:39 | 49.55805 | -2.78707 | 6140 ft | 214 kts | 218° |
| 2026-04-24 14:39 | 49.54699 | -2.80163 | 5975 ft | 203 kts | 217° |
| 2026-04-24 14:39 | 49.53647 | -2.81546 | 5752 ft | 196 kts | 217° |
| 2026-04-24 14:40 | 49.52614 | -2.82905 | 5414 ft | 195 kts | 217° |
| 2026-04-24 14:40 | 49.51584 | -2.84259 | 5069 ft | 195 kts | 216° |
| 2026-04-24 14:40 | 49.50556 | -2.85610 | 4740 ft | 193 kts | 217° |
| 2026-04-24 14:40 | 49.49531 | -2.86956 | 4378 ft | 194 kts | 215° |
| 2026-04-24 14:41 | 49.48504 | -2.88297 | 4033 ft | 194 kts | 214° |
| 2026-04-24 14:41 | 49.47330 | -2.89062 | 3854 ft | 176 kts | 182° |
| 2026-04-24 14:41 | 49.46161 | -2.89176 | 3727 ft | 163 kts | 176° |
| 2026-04-24 14:41 | 49.45040 | -2.89138 | 3455 ft | 158 kts | 164° |
| 2026-04-24 14:42 | 49.44194 | -2.88210 | 3148 ft | 151 kts | 123° |
| 2026-04-24 14:42 | 49.43690 | -2.86818 | 3022 ft | 150 kts | 116° |
| 2026-04-24 14:42 | 49.43229 | -2.85373 | 3013 ft | 150 kts | 115° |
| 2026-04-24 14:42 | 49.42837 | -2.83911 | 2998 ft | 152 kts | 101° |
| 2026-04-24 14:43 | 49.42905 | -2.82269 | 2917 ft | 154 kts | 89° |
| 2026-04-24 14:43 | 49.42932 | -2.80644 | 2761 ft | 152 kts | 91° |
| 2026-04-24 14:43 | 49.42966 | -2.79034 | 2572 ft | 151 kts | 90° |
| 2026-04-24 14:43 | 49.43007 | -2.77426 | 2375 ft | 150 kts | 89° |
| 2026-04-24 14:44 | 49.43052 | -2.75827 | 2174 ft | 149 kts | 89° |
| 2026-04-24 14:44 | 49.43096 | -2.74247 | 1987 ft | 147 kts | 89° |
| 2026-04-24 14:44 | 49.43141 | -2.72676 | 1782 ft | 148 kts | 89° |
| 2026-04-24 14:44 | 49.43186 | -2.71155 | 1581 ft | 133 kts | 89° |
| 2026-04-24 14:45 | 49.43225 | -2.69798 | 1411 ft | 123 kts | 89° |
| 2026-04-24 14:45 | 49.43261 | -2.68522 | 1253 ft | 117 kts | 88° |
| 2026-04-24 14:45 | 49.43296 | -2.67274 | 1096 ft | 117 kts | 86° |
| 2026-04-24 14:45 | 49.43332 | -2.66018 | 936 ft | 118 kts | 87° |
| 2026-04-24 14:46 | 49.43368 | -2.64751 | 769 ft | 117 kts | 85° |
| 2026-04-24 14:46 | 49.43403 | -2.63499 | 636 ft | 119 kts | 84° |
| 2026-04-24 14:46 | 49.43441 | -2.62245 | 460 ft | 117 kts | 84° |
| 2026-04-24 14:46 | 49.43473 | -2.61024 | 360 ft | 112 kts | 83° |
| 2026-04-24 14:47 | 49.43503 | -2.60149 | 338 ft | 45 kts | 88° |
| 2026-04-24 14:47 | 49.43484 | -2.59872 | 344 ft | 13 kts | 138° |
| 2026-04-24 14:47 | 49.43405 | -2.59859 | 340 ft | 8 kts | 179° |
| 2026-04-24 14:47 | 49.43346 | -2.59843 | 337 ft | 8 kts | 137° |
| 2026-04-24 14:48 | 49.43349 | -2.59755 | 340 ft | 7 kts | 69° |
| 2026-04-24 14:48 | 49.43345 | -2.59690 | 340 ft | 7 kts | 152° |
| 2026-04-24 14:48 | 49.43306 | -2.59686 | 340 ft | 4 kts | 179° |
| 2026-04-24 14:48 | 49.43278 | -2.59684 | 340 ft | 3 kts | 176° |
| 2026-04-24 14:49 | 49.43256 | -2.59682 | 340 ft | 0 kts | 176° |
| 2026-04-24 14:55 | 49.43254 | -2.59682 | 340 ft | 0 kts | 177° |